SUD1A VILH-VQPR
Flight info
| Callsign | SUD1A |
|---|---|
| Flight time | N/A |
| Altitude | 37000 |
| Route | TUNPU DCT KTM/N0448F370 B345 TUMLI G348 SUBSU SUBSU1 |
| Aircraft | A320/M-SDFGHILORVWY/S |
Departure
| Time | 2026-04-22 09:53 |
|---|---|
| Airport | Leh Kushok Bakula Rimpochee Airport (VILH) |
Arrival
| Time | N/A |
|---|---|
| Airport | Paro International Airport (VQPR) |
| Time | Latitude | Longitude | Altitude | Speed | Heading |
|---|---|---|---|---|---|
| 2026-04-22 09:43 | 34.13967 | 77.54839 | 10741 ft | 0 kts | 155° |
| 2026-04-22 09:49 | 34.13952 | 77.54847 | 10739 ft | 8 kts | 156° |
| 2026-04-22 09:49 | 34.13865 | 77.54893 | 10732 ft | 15 kts | 155° |
| 2026-04-22 09:49 | 34.13795 | 77.54975 | 10734 ft | 12 kts | 92° |
| 2026-04-22 09:49 | 34.13810 | 77.55037 | 10740 ft | 6 kts | 70° |
| 2026-04-22 09:50 | 34.13834 | 77.55117 | 10749 ft | 14 kts | 70° |
| 2026-04-22 09:50 | 34.13875 | 77.55257 | 10768 ft | 20 kts | 70° |
| 2026-04-22 09:50 | 34.13924 | 77.55422 | 10787 ft | 21 kts | 70° |
| 2026-04-22 09:50 | 34.13972 | 77.55584 | 10808 ft | 20 kts | 70° |
| 2026-04-22 09:51 | 34.14015 | 77.55732 | 10826 ft | 18 kts | 71° |
| 2026-04-22 09:51 | 34.14048 | 77.55882 | 10853 ft | 20 kts | 84° |
| 2026-04-22 09:51 | 34.14046 | 77.56045 | 10873 ft | 12 kts | 111° |
| 2026-04-22 09:51 | 34.13992 | 77.55971 | 10861 ft | 22 kts | 251° |
| 2026-04-22 09:52 | 34.13889 | 77.55615 | 10805 ft | 83 kts | 251° |
| 2026-04-22 09:52 | 34.13613 | 77.54659 | 10686 ft | 156 kts | 251° |
| 2026-04-22 09:52 | 34.13170 | 77.53209 | 10696 ft | 201 kts | 243° |
| 2026-04-22 09:52 | 34.12687 | 77.52253 | 11105 ft | 206 kts | 241° |
| 2026-04-22 09:53 | 34.12191 | 77.50587 | 11812 ft | 217 kts | 264° |
| 2026-04-22 09:53 | 34.12451 | 77.48175 | 12973 ft | 220 kts | 290° |
| 2026-04-22 09:53 | 34.12809 | 77.46992 | 13135 ft | 232 kts | 293° |
| 2026-04-22 09:53 | 34.13479 | 77.45159 | 13439 ft | 244 kts | 296° |
| 2026-04-22 09:54 | 34.14198 | 77.43277 | 13769 ft | 249 kts | 294° |
| 2026-04-22 09:54 | 34.14881 | 77.41359 | 14216 ft | 250 kts | 292° |
| 2026-04-22 09:54 | 34.15568 | 77.39393 | 14677 ft | 257 kts | 292° |
| 2026-04-22 09:54 | 34.16305 | 77.37416 | 15277 ft | 259 kts | 298° |
| 2026-04-22 09:55 | 34.17390 | 77.35720 | 15993 ft | 255 kts | 323° |
| 2026-04-22 09:55 | 34.19031 | 77.35042 | 16622 ft | 258 kts | 2° |
| 2026-04-22 09:55 | 34.20759 | 77.35791 | 16855 ft | 279 kts | 40° |
| 2026-04-22 09:55 | 34.21857 | 77.37813 | 16912 ft | 306 kts | 77° |
| 2026-04-22 09:56 | 34.21764 | 77.40412 | 17161 ft | 320 kts | 114° |
| 2026-04-22 09:56 | 34.20457 | 77.42347 | 18388 ft | 290 kts | 143° |
| 2026-04-22 09:56 | 34.18733 | 77.43751 | 18540 ft | 309 kts | 155° |
| 2026-04-22 09:56 | 34.16747 | 77.44961 | 18688 ft | 331 kts | 156° |
| 2026-04-22 09:57 | 34.14601 | 77.46179 | 18791 ft | 350 kts | 158° |
| 2026-04-22 09:57 | 34.12317 | 77.47411 | 18908 ft | 369 kts | 159° |
| 2026-04-22 09:57 | 34.09914 | 77.48676 | 19024 ft | 386 kts | 159° |
| 2026-04-22 09:57 | 34.07405 | 77.49986 | 19140 ft | 400 kts | 159° |
| 2026-04-22 09:58 | 34.04827 | 77.51331 | 19472 ft | 406 kts | 159° |
| 2026-04-22 09:58 | 34.02223 | 77.52697 | 19901 ft | 410 kts | 158° |
| 2026-04-22 09:58 | 33.99605 | 77.54084 | 20416 ft | 412 kts | 159° |
| 2026-04-22 09:58 | 33.96978 | 77.55484 | 20907 ft | 415 kts | 159° |
| 2026-04-22 09:59 | 33.94347 | 77.56931 | 21378 ft | 417 kts | 154° |
| 2026-04-22 09:59 | 33.91883 | 77.58805 | 21894 ft | 423 kts | 144° |
| 2026-04-22 09:59 | 33.89705 | 77.61135 | 22433 ft | 428 kts | 135° |
| 2026-04-22 09:59 | 33.87723 | 77.63835 | 22906 ft | 432 kts | 133° |
| 2026-04-22 10:00 | 33.85743 | 77.66574 | 23338 ft | 436 kts | 132° |
| 2026-04-22 10:00 | 33.83748 | 77.69335 | 23773 ft | 439 kts | 133° |
| 2026-04-22 10:00 | 33.81738 | 77.72110 | 24170 ft | 441 kts | 133° |
| 2026-04-22 10:00 | 33.79716 | 77.74895 | 24550 ft | 444 kts | 133° |
| 2026-04-22 10:01 | 33.77682 | 77.77693 | 24920 ft | 446 kts | 133° |
| 2026-04-22 10:01 | 33.75639 | 77.80507 | 25270 ft | 448 kts | 133° |
| 2026-04-22 10:01 | 33.73586 | 77.83335 | 25624 ft | 450 kts | 133° |
| 2026-04-22 10:01 | 33.71518 | 77.86179 | 25966 ft | 454 kts | 133° |
| 2026-04-22 10:02 | 33.69435 | 77.89041 | 26311 ft | 456 kts | 133° |
| 2026-04-22 10:02 | 33.67341 | 77.91908 | 26622 ft | 458 kts | 133° |
| 2026-04-22 10:02 | 33.65230 | 77.94789 | 26977 ft | 460 kts | 133° |
| 2026-04-22 10:02 | 33.63108 | 77.97685 | 27274 ft | 465 kts | 133° |
| 2026-04-22 10:03 | 33.60969 | 78.00607 | 27585 ft | 468 kts | 132° |
| 2026-04-22 10:03 | 33.58820 | 78.03545 | 27940 ft | 470 kts | 133° |
| 2026-04-22 10:03 | 33.56661 | 78.06498 | 28189 ft | 473 kts | 133° |
| 2026-04-22 10:03 | 33.54482 | 78.09472 | 28447 ft | 476 kts | 132° |
| 2026-04-22 10:04 | 33.52296 | 78.12454 | 28781 ft | 476 kts | 132° |
| 2026-04-22 10:04 | 33.50110 | 78.15434 | 29054 ft | 478 kts | 131° |
| 2026-04-22 10:04 | 33.47906 | 78.18430 | 29302 ft | 482 kts | 132° |
| 2026-04-22 10:04 | 33.45688 | 78.21444 | 29597 ft | 483 kts | 132° |
| 2026-04-22 10:05 | 33.43464 | 78.24464 | 29891 ft | 484 kts | 132° |
| 2026-04-22 10:05 | 33.41233 | 78.27492 | 30135 ft | 486 kts | 132° |
| 2026-04-22 10:05 | 33.38988 | 78.30532 | 30314 ft | 488 kts | 132° |
| 2026-04-22 10:05 | 33.36747 | 78.33569 | 30649 ft | 485 kts | 132° |
| 2026-04-22 10:06 | 33.34522 | 78.36586 | 30993 ft | 484 kts | 131° |
| 2026-04-22 10:06 | 33.32296 | 78.39603 | 31253 ft | 484 kts | 132° |
| 2026-04-22 10:06 | 33.30065 | 78.42621 | 31501 ft | 484 kts | 131° |
| 2026-04-22 10:06 | 33.27837 | 78.45633 | 31863 ft | 481 kts | 132° |
| 2026-04-22 10:07 | 33.25623 | 78.48627 | 32155 ft | 481 kts | 132° |
| 2026-04-22 10:07 | 33.23399 | 78.51629 | 32380 ft | 483 kts | 132° |
| 2026-04-22 10:07 | 33.21174 | 78.54624 | 32702 ft | 481 kts | 132° |
| 2026-04-22 10:07 | 33.18957 | 78.57603 | 33046 ft | 480 kts | 131° |
| 2026-04-22 10:08 | 33.16743 | 78.60579 | 33324 ft | 480 kts | 132° |
| 2026-04-22 10:08 | 33.14528 | 78.63559 | 33648 ft | 479 kts | 131° |
| 2026-04-22 10:08 | 33.12325 | 78.66519 | 34014 ft | 476 kts | 132° |
| 2026-04-22 10:08 | 33.10123 | 78.69467 | 34287 ft | 475 kts | 132° |
| 2026-04-22 10:09 | 33.07929 | 78.72398 | 34567 ft | 474 kts | 132° |
| 2026-04-22 10:09 | 33.05738 | 78.75327 | 34847 ft | 473 kts | 131° |
| 2026-04-22 10:09 | 33.03556 | 78.78247 | 35141 ft | 471 kts | 131° |
| 2026-04-22 10:09 | 33.01378 | 78.81166 | 35361 ft | 472 kts | 131° |
| 2026-04-22 10:10 | 32.99196 | 78.84088 | 35546 ft | 472 kts | 131° |
| 2026-04-22 10:10 | 32.97015 | 78.87005 | 35789 ft | 471 kts | 131° |
| 2026-04-22 10:10 | 32.94836 | 78.89918 | 36027 ft | 471 kts | 131° |
| 2026-04-22 10:10 | 32.92685 | 78.92789 | 36203 ft | 472 kts | 131° |
| 2026-04-22 10:11 | 32.90494 | 78.95706 | 36334 ft | 474 kts | 131° |
| 2026-04-22 10:11 | 32.88298 | 78.98628 | 36505 ft | 474 kts | 131° |
| 2026-04-22 10:11 | 32.86096 | 79.01554 | 36671 ft | 475 kts | 131° |
| 2026-04-22 10:11 | 32.83887 | 79.04488 | 36811 ft | 477 kts | 131° |
| 2026-04-22 10:12 | 32.81677 | 79.07422 | 36975 ft | 475 kts | 131° |
| 2026-04-22 10:12 | 32.79481 | 79.10336 | 37003 ft | 472 kts | 131° |
| 2026-04-22 10:12 | 32.75104 | 79.16145 | 37025 ft | 471 kts | 131° |
| 2026-04-22 10:13 | 32.70728 | 79.21931 | 37024 ft | 470 kts | 132° |
| 2026-04-22 10:13 | 32.66343 | 79.27714 | 37049 ft | 473 kts | 131° |
| 2026-04-22 10:14 | 32.61940 | 79.33516 | 37043 ft | 474 kts | 131° |
| 2026-04-22 10:14 | 32.57525 | 79.39328 | 37072 ft | 474 kts | 132° |
| 2026-04-22 10:15 | 32.53119 | 79.45128 | 37062 ft | 473 kts | 132° |
| 2026-04-22 10:15 | 32.48721 | 79.50901 | 37076 ft | 471 kts | 132° |
| 2026-04-22 10:16 | 32.44337 | 79.56655 | 37065 ft | 470 kts | 132° |
| 2026-04-22 10:16 | 32.39952 | 79.62398 | 37043 ft | 470 kts | 132° |
| 2026-04-22 10:17 | 32.35551 | 79.68139 | 37034 ft | 471 kts | 132° |
| 2026-04-22 10:17 | 32.31149 | 79.73876 | 37019 ft | 471 kts | 132° |
| 2026-04-22 10:18 | 32.26744 | 79.79608 | 37033 ft | 471 kts | 132° |
| 2026-04-22 10:18 | 32.22343 | 79.85332 | 37046 ft | 469 kts | 132° |
| 2026-04-22 10:19 | 32.17964 | 79.91021 | 37055 ft | 468 kts | 132° |
| 2026-04-22 10:19 | 32.13582 | 79.96714 | 37051 ft | 468 kts | 132° |
| 2026-04-22 10:20 | 32.09196 | 80.02384 | 37067 ft | 468 kts | 132° |
| 2026-04-22 10:20 | 32.04803 | 80.08055 | 37067 ft | 468 kts | 132° |
| 2026-04-22 10:21 | 32.00411 | 80.13726 | 37074 ft | 469 kts | 132° |
| 2026-04-22 10:21 | 31.96010 | 80.19394 | 37080 ft | 469 kts | 132° |
| 2026-04-22 10:22 | 31.91605 | 80.25056 | 37082 ft | 469 kts | 132° |
| 2026-04-22 10:22 | 31.87200 | 80.30713 | 37079 ft | 468 kts | 132° |
| 2026-04-22 10:23 | 31.82831 | 80.36321 | 37083 ft | 468 kts | 133° |
| 2026-04-22 10:23 | 31.78424 | 80.41961 | 37073 ft | 468 kts | 132° |
| 2026-04-22 10:24 | 31.74020 | 80.47592 | 37072 ft | 468 kts | 133° |
| 2026-04-22 10:24 | 31.69613 | 80.53228 | 37068 ft | 468 kts | 133° |
| 2026-04-22 10:25 | 31.65200 | 80.58852 | 37065 ft | 468 kts | 133° |
| 2026-04-22 10:25 | 31.60781 | 80.64475 | 37059 ft | 469 kts | 132° |
| 2026-04-22 10:26 | 31.56361 | 80.70095 | 37058 ft | 469 kts | 133° |
| 2026-04-22 10:26 | 31.51937 | 80.75714 | 37059 ft | 469 kts | 133° |
| 2026-04-22 10:27 | 31.47510 | 80.81324 | 37054 ft | 469 kts | 133° |
| 2026-04-22 10:27 | 31.43071 | 80.86936 | 37055 ft | 469 kts | 133° |
| 2026-04-22 10:28 | 31.38635 | 80.92529 | 37069 ft | 469 kts | 133° |
| 2026-04-22 10:28 | 31.34203 | 80.98115 | 37063 ft | 468 kts | 133° |
| 2026-04-22 10:29 | 31.29773 | 81.03700 | 37051 ft | 468 kts | 132° |
| 2026-04-22 10:29 | 31.25346 | 81.09286 | 37066 ft | 468 kts | 133° |
| 2026-04-22 10:30 | 31.20913 | 81.14850 | 37041 ft | 468 kts | 133° |
| 2026-04-22 10:30 | 31.16470 | 81.20407 | 37039 ft | 468 kts | 133° |
| 2026-04-22 10:31 | 31.12029 | 81.25969 | 37054 ft | 469 kts | 133° |
| 2026-04-22 10:31 | 31.07585 | 81.31530 | 37031 ft | 469 kts | 132° |
| 2026-04-22 10:32 | 31.03126 | 81.37091 | 37038 ft | 469 kts | 133° |
| 2026-04-22 10:32 | 30.98662 | 81.42654 | 37022 ft | 470 kts | 132° |